createdAt,value
2023-05-05T00:00:01.878Z,12.10
2023-05-05T00:02:30.431Z,12.00
2023-05-05T00:04:59.052Z,11.90
2023-05-05T00:07:27.597Z,11.90
2023-05-05T00:09:55.823Z,11.90
2023-05-05T00:12:24.399Z,11.90
2023-05-05T00:14:52.924Z,11.80
2023-05-05T00:17:21.145Z,11.80
2023-05-05T00:19:50.264Z,11.90
2023-05-05T00:22:18.364Z,11.90
2023-05-05T00:24:46.557Z,11.80
2023-05-05T00:27:15.158Z,11.80
2023-05-05T00:29:43.634Z,11.80
2023-05-05T00:32:11.859Z,11.70
2023-05-05T00:34:39.894Z,11.70
2023-05-05T00:37:08.577Z,11.70
2023-05-05T00:39:36.762Z,11.80
2023-05-05T00:42:04.900Z,11.70
2023-05-05T00:44:41.067Z,11.80
2023-05-05T00:47:10.307Z,11.80
2023-05-05T00:49:40.124Z,11.80
2023-05-05T00:52:10.378Z,11.80
2023-05-05T00:54:39.470Z,11.70
2023-05-05T00:57:08.206Z,11.70
2023-05-05T00:59:37.511Z,11.70
2023-05-05T01:02:05.960Z,11.70
2023-05-05T01:04:34.094Z,11.70
2023-05-05T01:07:04.019Z,11.70
2023-05-05T01:10:19.831Z,11.80
2023-05-05T01:12:55.945Z,11.80
2023-05-05T01:15:33.803Z,11.80
2023-05-05T01:18:27.762Z,11.80
2023-05-05T01:21:27.706Z,11.80
2023-05-05T01:23:56.490Z,11.70
2023-05-05T01:26:34.773Z,11.80
2023-05-05T01:29:23.167Z,11.70
2023-05-05T01:31:59.969Z,11.60
2023-05-05T01:34:45.755Z,11.40
2023-05-05T01:37:27.596Z,11.30
2023-05-05T01:40:02.421Z,11.30
2023-05-05T01:42:34.712Z,11.40
2023-05-05T01:45:08.507Z,11.30
2023-05-05T01:47:39.516Z,11.20
2023-05-05T01:50:09.383Z,11.20
2023-05-05T01:52:40.348Z,11.10
2023-05-05T01:55:11.346Z,11.20
2023-05-05T01:57:42.411Z,11.20
2023-05-05T02:00:12.081Z,11.30
2023-05-05T02:02:47.826Z,11.20
2023-05-05T02:05:19.426Z,11.30
2023-05-05T02:07:51.217Z,11.30
2023-05-05T02:10:41.049Z,11.30
2023-05-05T02:13:15.719Z,11.40
2023-05-05T02:15:45.026Z,11.30
2023-05-05T02:18:15.095Z,11.30
2023-05-05T02:20:44.547Z,11.20
2023-05-05T02:23:13.034Z,11.20
2023-05-05T02:25:49.812Z,11.20
2023-05-05T02:28:23.223Z,11.20
2023-05-05T02:30:58.503Z,11.10
2023-05-05T02:33:32.665Z,11.20
2023-05-05T02:36:17.524Z,11.20
2023-05-05T02:39:03.607Z,11.20
2023-05-05T02:41:40.296Z,11.30
2023-05-05T02:44:25.001Z,11.20
2023-05-05T02:46:55.511Z,11.20
2023-05-05T02:49:25.214Z,11.30
2023-05-05T02:51:59.202Z,11.30
2023-05-05T02:54:32.828Z,11.20
2023-05-05T02:57:03.197Z,11.10
2023-05-05T02:59:47.351Z,11.10
2023-05-05T03:02:28.905Z,11.00
2023-05-05T03:05:10.006Z,10.90
2023-05-05T03:08:00.931Z,10.70
2023-05-05T03:10:39.854Z,10.60
2023-05-05T03:13:11.162Z,10.40
2023-05-05T03:15:53.073Z,10.30
2023-05-05T03:18:26.046Z,10.30
2023-05-05T03:21:10.860Z,10.30
2023-05-05T03:23:42.710Z,10.40
2023-05-05T03:26:19.248Z,10.40
2023-05-05T03:28:48.067Z,10.40
2023-05-05T03:31:25.600Z,10.40
2023-05-05T03:33:58.216Z,10.40
2023-05-05T03:36:30.684Z,10.50
2023-05-05T03:39:00.505Z,10.60
2023-05-05T03:41:33.231Z,10.60
2023-05-05T03:44:01.915Z,10.70
2023-05-05T03:46:31.309Z,10.70
2023-05-05T03:48:59.256Z,10.70
2023-05-05T03:51:28.662Z,10.80
2023-05-05T03:53:57.946Z,10.80
2023-05-05T03:56:26.915Z,10.70
2023-05-05T03:58:54.966Z,10.80
2023-05-05T04:01:23.641Z,10.90
2023-05-05T04:03:52.912Z,11.00
2023-05-05T04:06:21.789Z,11.00
2023-05-05T04:08:50.473Z,10.90
2023-05-05T04:11:18.699Z,10.90
2023-05-05T04:13:48.570Z,11.00
2023-05-05T04:16:16.924Z,11.00
2023-05-05T04:18:46.408Z,11.10
2023-05-05T04:21:14.894Z,11.10
2023-05-05T04:23:43.010Z,10.90
2023-05-05T04:26:12.661Z,10.80
2023-05-05T04:28:40.663Z,10.80
2023-05-05T04:31:10.742Z,10.70
2023-05-05T04:33:42.281Z,10.80
2023-05-05T04:36:11.240Z,10.80
2023-05-05T04:38:40.154Z,11.00
2023-05-05T04:41:09.302Z,11.10
2023-05-05T04:43:40.123Z,11.30
2023-05-05T04:46:08.165Z,11.60
2023-05-05T04:48:38.622Z,11.90
2023-05-05T04:51:08.102Z,11.90
2023-05-05T04:53:38.009Z,11.80
2023-05-05T04:56:06.298Z,11.70
2023-05-05T04:58:34.251Z,11.90
2023-05-05T05:01:03.483Z,12.10
2023-05-05T05:03:32.321Z,12.10
2023-05-05T05:06:00.775Z,12.00
2023-05-05T05:08:29.583Z,12.30
2023-05-05T05:10:59.317Z,12.50
2023-05-05T05:13:27.885Z,12.80
2023-05-05T05:15:56.060Z,12.90
2023-05-05T05:18:24.723Z,13.00
2023-05-05T05:20:53.314Z,13.50
2023-05-05T05:23:21.532Z,13.80
2023-05-05T05:25:50.985Z,13.80
2023-05-05T05:28:21.150Z,14.10
2023-05-05T05:30:55.288Z,14.20
2023-05-05T05:33:24.057Z,14.20
2023-05-05T05:35:53.264Z,14.00
2023-05-05T05:38:22.488Z,14.00
2023-05-05T05:40:54.652Z,14.20
2023-05-05T05:43:24.156Z,14.50
2023-05-05T05:45:53.167Z,14.90
2023-05-05T05:48:24.921Z,15.00
2023-05-05T05:50:54.008Z,15.00
2023-05-05T05:53:22.660Z,14.80
2023-05-05T05:55:52.492Z,14.70
2023-05-05T05:58:21.244Z,14.60
2023-05-05T06:00:50.050Z,14.90
2023-05-05T06:03:18.492Z,15.00
2023-05-05T06:05:47.499Z,15.50
2023-05-05T06:08:16.654Z,16.10
2023-05-05T06:10:49.737Z,16.60
2023-05-05T06:13:20.355Z,17.10
2023-05-05T06:15:52.020Z,17.10
2023-05-05T06:18:20.515Z,17.30
2023-05-05T06:20:52.533Z,17.50
2023-05-05T06:23:23.770Z,17.90
2023-05-05T06:25:58.299Z,17.40
2023-05-05T06:28:27.346Z,17.40
2023-05-05T06:30:56.593Z,17.40
2023-05-05T06:33:24.568Z,17.10
2023-05-05T06:35:53.450Z,16.80
2023-05-05T06:38:22.406Z,17.10
2023-05-05T06:40:51.041Z,17.50
2023-05-05T06:43:20.210Z,18.10
2023-05-05T06:45:55.344Z,18.50
2023-05-05T06:48:23.959Z,18.80
2023-05-05T06:50:52.289Z,19.00
2023-05-05T06:53:20.979Z,19.20
2023-05-05T06:55:49.020Z,19.30
2023-05-05T06:58:18.032Z,19.20
2023-05-05T07:00:46.091Z,19.10
2023-05-05T07:03:15.071Z,18.90
2023-05-05T07:05:44.576Z,18.40
2023-05-05T07:08:13.657Z,18.40
2023-05-05T07:10:42.921Z,18.20
2023-05-05T07:13:11.193Z,18.50
2023-05-05T07:15:46.453Z,18.50
2023-05-05T07:18:15.406Z,18.20
2023-05-05T07:20:44.583Z,17.60
2023-05-05T07:23:13.985Z,17.90
2023-05-05T07:25:42.106Z,18.50
2023-05-05T07:28:11.604Z,19.00
2023-05-05T07:30:40.132Z,19.50
2023-05-05T07:33:09.171Z,19.30
2023-05-05T07:35:40.136Z,18.90
2023-05-05T07:38:10.804Z,19.70
2023-05-05T07:40:39.566Z,20.10
2023-05-05T07:43:07.976Z,20.00
2023-05-05T07:45:36.580Z,20.10
2023-05-05T07:48:05.268Z,20.30
2023-05-05T07:50:33.787Z,19.40
2023-05-05T07:53:13.916Z,18.90
2023-05-05T07:55:44.220Z,19.50
2023-05-05T07:58:13.063Z,20.70
2023-05-05T08:00:41.635Z,21.10
2023-05-05T08:03:12.029Z,21.60
2023-05-05T08:05:40.848Z,21.00
2023-05-05T08:08:09.437Z,21.30
2023-05-05T08:10:38.398Z,21.60
2023-05-05T08:13:06.648Z,20.70
2023-05-05T08:15:35.661Z,20.30
2023-05-05T08:18:04.430Z,20.80
2023-05-05T08:20:33.033Z,21.30
2023-05-05T08:23:01.933Z,21.40
2023-05-05T08:25:30.441Z,20.70
2023-05-05T08:27:58.413Z,20.50
2023-05-05T08:30:29.692Z,20.80
2023-05-05T08:32:59.453Z,21.00
2023-05-05T08:35:28.398Z,21.40
2023-05-05T08:37:58.899Z,21.10
2023-05-05T08:40:33.308Z,21.40
2023-05-05T08:43:02.088Z,22.00
2023-05-05T08:45:32.228Z,22.80
2023-05-05T08:48:05.841Z,23.30
2023-05-05T08:50:34.442Z,22.90
2023-05-05T08:53:17.059Z,22.90
2023-05-05T08:55:52.107Z,23.20
2023-05-05T08:58:21.928Z,22.60
2023-05-05T09:00:51.899Z,22.40
2023-05-05T09:03:21.272Z,22.30
2023-05-05T09:05:51.141Z,22.30
2023-05-05T09:08:21.564Z,22.20
2023-05-05T09:10:51.936Z,22.50
2023-05-05T09:13:30.258Z,23.10
2023-05-05T09:15:59.751Z,23.80
2023-05-05T09:18:29.197Z,24.00
2023-05-05T09:20:59.390Z,24.10
2023-05-05T09:23:28.414Z,24.10
2023-05-05T09:26:09.065Z,24.20
2023-05-05T09:28:37.706Z,23.90
2023-05-05T09:31:14.090Z,22.70
2023-05-05T09:33:43.889Z,22.20
2023-05-05T09:36:12.425Z,22.70
2023-05-05T09:38:40.846Z,22.90
2023-05-05T09:41:09.531Z,23.20
2023-05-05T09:43:59.107Z,23.30
2023-05-05T09:46:27.773Z,21.90
2023-05-05T09:48:56.797Z,21.80
2023-05-05T09:51:31.848Z,22.40
2023-05-05T09:54:00.546Z,23.10
2023-05-05T09:56:41.322Z,23.40
2023-05-05T09:59:11.085Z,23.70
2023-05-05T10:01:39.809Z,23.60
2023-05-05T10:04:08.284Z,23.00
2023-05-05T10:06:43.663Z,23.00
2023-05-05T10:09:12.265Z,22.30
2023-05-05T10:11:42.856Z,22.50
2023-05-05T10:14:15.169Z,22.90
2023-05-05T10:16:52.694Z,23.30
2023-05-05T10:19:23.028Z,22.70
2023-05-05T10:21:59.375Z,22.60
2023-05-05T10:24:47.847Z,22.30
2023-05-05T10:27:19.787Z,22.20
2023-05-05T10:30:07.772Z,22.20
2023-05-05T10:33:03.561Z,22.10
2023-05-05T10:35:40.940Z,22.50
2023-05-05T10:38:10.120Z,23.20
2023-05-05T10:40:39.734Z,23.40
2023-05-05T10:43:08.460Z,23.00
2023-05-05T10:45:38.723Z,23.10
2023-05-05T10:48:13.062Z,22.80
2023-05-05T10:51:03.904Z,23.00
2023-05-05T10:53:43.000Z,22.90
2023-05-05T10:56:27.336Z,22.60
2023-05-05T10:59:00.208Z,22.40
2023-05-05T11:01:32.355Z,22.80
2023-05-05T11:04:20.000Z,23.30
2023-05-05T11:07:11.819Z,23.40
2023-05-05T11:10:01.615Z,23.10
2023-05-05T11:13:00.153Z,22.80
2023-05-05T11:15:31.617Z,22.80
2023-05-05T11:18:07.575Z,23.20
2023-05-05T11:20:40.142Z,23.20
2023-05-05T11:23:08.957Z,23.30
2023-05-05T11:25:41.331Z,23.30
2023-05-05T11:28:11.533Z,23.60
2023-05-05T11:30:56.032Z,24.00
2023-05-05T11:33:37.993Z,23.40
2023-05-05T11:36:09.369Z,23.40
2023-05-05T11:39:00.419Z,22.80
2023-05-05T11:41:32.509Z,22.80
2023-05-05T11:44:21.045Z,22.80
2023-05-05T11:46:52.716Z,22.90
2023-05-05T11:49:28.836Z,23.00
2023-05-05T11:51:58.774Z,23.10
2023-05-05T11:54:28.205Z,23.50
2023-05-05T11:57:09.373Z,23.80
2023-05-05T11:59:57.689Z,23.90
2023-05-05T12:02:30.342Z,23.70
2023-05-05T12:04:59.939Z,23.50
2023-05-05T12:07:33.802Z,23.30
2023-05-05T12:10:03.109Z,23.30
2023-05-05T12:12:37.397Z,23.50
2023-05-05T12:15:08.279Z,23.80
2023-05-05T12:17:40.083Z,23.90
2023-05-05T12:20:11.165Z,23.80
2023-05-05T12:22:41.130Z,23.60
2023-05-05T12:25:10.695Z,23.70
2023-05-05T12:27:39.125Z,23.40
2023-05-05T12:30:16.573Z,23.70
2023-05-05T12:32:46.501Z,23.30
2023-05-05T12:35:16.189Z,23.40
2023-05-05T12:37:45.575Z,23.60
2023-05-05T12:40:48.925Z,24.20
2023-05-05T12:43:28.676Z,24.20
2023-05-05T12:46:08.055Z,24.40
2023-05-05T12:48:39.036Z,24.20
2023-05-05T12:51:23.688Z,24.20
2023-05-05T12:54:23.897Z,23.90
2023-05-05T12:56:52.047Z,23.80
2023-05-05T12:59:24.597Z,24.20
2023-05-05T13:01:53.606Z,24.40
2023-05-05T13:04:27.480Z,24.50
2023-05-05T13:07:14.047Z,24.00
2023-05-05T13:09:43.034Z,23.80
2023-05-05T13:12:12.489Z,23.90
2023-05-05T13:14:41.930Z,24.00
2023-05-05T13:17:12.021Z,24.10
2023-05-05T13:19:46.738Z,24.30
2023-05-05T13:22:16.673Z,24.60
2023-05-05T13:24:51.789Z,24.60
2023-05-05T13:27:21.456Z,24.80
2023-05-05T13:29:49.933Z,24.70
2023-05-05T13:32:19.044Z,24.50
2023-05-05T13:34:47.798Z,24.50
2023-05-05T13:37:16.129Z,24.30
2023-05-05T13:39:45.153Z,24.40
2023-05-05T13:42:13.376Z,24.40
2023-05-05T13:44:42.131Z,24.20
2023-05-05T13:47:11.647Z,23.90
2023-05-05T13:49:40.257Z,23.80
2023-05-05T13:52:08.938Z,24.00
2023-05-05T13:54:38.397Z,24.10
2023-05-05T13:57:08.153Z,24.10
2023-05-05T13:59:36.426Z,24.10
2023-05-05T14:02:04.577Z,24.20
2023-05-05T14:04:33.635Z,24.20
2023-05-05T14:07:02.952Z,24.30
2023-05-05T14:09:31.079Z,24.20
2023-05-05T14:11:59.599Z,23.60
2023-05-05T14:14:29.598Z,23.90
2023-05-05T14:16:58.323Z,24.20
2023-05-05T14:19:26.854Z,23.90
2023-05-05T14:21:55.623Z,23.70
2023-05-05T14:24:24.262Z,23.70
2023-05-05T14:26:53.411Z,23.80
2023-05-05T14:29:22.391Z,24.20
2023-05-05T14:31:50.587Z,24.20
2023-05-05T14:34:19.403Z,24.30
2023-05-05T14:36:47.611Z,24.20
2023-05-05T14:39:16.831Z,24.30
2023-05-05T14:41:45.222Z,24.30
2023-05-05T14:44:13.864Z,24.30
2023-05-05T14:46:43.565Z,24.10
2023-05-05T14:49:13.931Z,24.10
2023-05-05T14:51:43.246Z,24.20
2023-05-05T14:54:24.136Z,24.30
2023-05-05T14:56:56.637Z,24.30
2023-05-05T14:59:25.688Z,24.10
2023-05-05T15:01:54.405Z,24.20
2023-05-05T15:04:23.490Z,24.30
2023-05-05T15:06:52.400Z,24.40
2023-05-05T15:09:21.516Z,24.00
2023-05-05T15:11:50.225Z,23.90
2023-05-05T15:14:18.999Z,23.60
2023-05-05T15:16:47.914Z,23.70
2023-05-05T15:19:16.842Z,23.90
2023-05-05T15:21:45.061Z,23.90
2023-05-05T15:24:13.550Z,24.00
2023-05-05T15:26:42.092Z,24.00
2023-05-05T15:29:10.938Z,24.10
2023-05-05T15:31:39.760Z,23.90
2023-05-05T15:34:08.921Z,23.90
2023-05-05T15:36:37.116Z,24.00
2023-05-05T15:39:06.268Z,24.10
2023-05-05T15:41:34.950Z,23.90
2023-05-05T15:44:05.033Z,23.70
2023-05-05T15:46:34.811Z,23.70
2023-05-05T15:49:03.891Z,23.40
2023-05-05T15:51:33.204Z,23.30
2023-05-05T15:54:02.346Z,23.10
2023-05-05T15:56:30.970Z,22.90
2023-05-05T15:58:59.744Z,22.70
2023-05-05T16:01:27.858Z,22.60
2023-05-05T16:03:57.674Z,22.60
2023-05-05T16:06:27.382Z,22.50
2023-05-05T16:08:58.772Z,22.40
2023-05-05T16:11:28.101Z,22.30
2023-05-05T16:13:56.667Z,22.20
2023-05-05T16:16:25.447Z,22.10
2023-05-05T16:18:54.277Z,22.00
2023-05-05T16:21:23.065Z,22.00
2023-05-05T16:23:51.745Z,22.00
2023-05-05T16:26:21.259Z,22.30
2023-05-05T16:28:49.981Z,22.60
2023-05-05T16:31:18.520Z,22.90
2023-05-05T16:33:46.708Z,23.00
2023-05-05T16:36:15.453Z,23.10
2023-05-05T16:38:44.354Z,22.90
2023-05-05T16:41:13.264Z,22.90
2023-05-05T16:43:41.859Z,22.70
2023-05-05T16:46:11.342Z,22.70
2023-05-05T16:48:39.431Z,22.80
2023-05-05T16:51:08.849Z,22.60
2023-05-05T16:53:38.547Z,22.50
2023-05-05T16:56:07.753Z,22.30
2023-05-05T16:58:36.346Z,22.10
2023-05-05T17:01:06.027Z,21.70
2023-05-05T17:03:34.979Z,21.70
2023-05-05T17:06:03.989Z,21.60
2023-05-05T17:08:32.968Z,21.70
2023-05-05T17:11:02.103Z,21.70
2023-05-05T17:13:31.311Z,21.70
2023-05-05T17:15:59.408Z,21.80
2023-05-05T17:18:27.954Z,21.80
2023-05-05T17:20:57.495Z,21.50
2023-05-05T17:23:27.496Z,21.20
2023-05-05T17:25:59.099Z,21.10
2023-05-05T17:28:27.771Z,20.90
2023-05-05T17:30:59.666Z,21.00
2023-05-05T17:33:28.958Z,21.00
2023-05-05T17:35:57.783Z,20.90
2023-05-05T17:38:26.800Z,20.90
2023-05-05T17:40:55.691Z,20.60
2023-05-05T17:43:24.217Z,20.50
2023-05-05T17:45:53.414Z,20.50
2023-05-05T17:48:21.681Z,20.40
2023-05-05T17:50:51.179Z,20.30
2023-05-05T17:53:19.570Z,20.30
2023-05-05T17:55:48.594Z,20.20
2023-05-05T17:58:17.564Z,20.20
2023-05-05T18:00:46.340Z,20.10
2023-05-05T18:03:15.049Z,20.10
2023-05-05T18:05:43.626Z,20.00
2023-05-05T18:08:12.414Z,20.00
2023-05-05T18:10:41.352Z,19.80
2023-05-05T18:13:10.775Z,19.70
2023-05-05T18:15:40.360Z,19.70
2023-05-05T18:18:09.387Z,19.60
2023-05-05T18:20:38.467Z,19.50
2023-05-05T18:23:07.686Z,19.50
2023-05-05T18:25:36.853Z,19.40
2023-05-05T18:28:06.312Z,19.40
2023-05-05T18:30:35.782Z,19.30
2023-05-05T18:33:04.794Z,19.30
2023-05-05T18:35:33.584Z,19.20
2023-05-05T18:38:02.720Z,19.10
2023-05-05T18:40:31.854Z,19.10
2023-05-05T18:42:59.993Z,19.10
2023-05-05T18:45:28.669Z,19.00
2023-05-05T18:47:56.744Z,19.00
2023-05-05T18:50:26.005Z,18.90
2023-05-05T18:52:55.070Z,18.90
2023-05-05T18:55:24.006Z,18.80
2023-05-05T18:57:53.482Z,18.80
2023-05-05T19:00:21.849Z,18.70
2023-05-05T19:02:51.535Z,18.70
2023-05-05T19:05:20.135Z,18.60
2023-05-05T19:07:48.989Z,18.60
2023-05-05T19:10:17.235Z,18.50
2023-05-05T19:12:45.917Z,18.00
2023-05-05T19:15:14.136Z,18.40
2023-05-05T19:17:43.067Z,18.40
2023-05-05T19:20:12.239Z,18.40
2023-05-05T19:22:40.214Z,18.40
2023-05-05T19:25:09.364Z,18.40
2023-05-05T19:27:37.704Z,18.30
2023-05-05T19:30:07.863Z,18.20
2023-05-05T19:32:36.708Z,18.10
2023-05-05T19:35:06.905Z,18.10
2023-05-05T19:37:35.788Z,18.10
2023-05-05T19:40:04.291Z,18.00
2023-05-05T19:42:33.226Z,18.00
2023-05-05T19:45:03.052Z,18.00
2023-05-05T19:47:36.397Z,18.00
2023-05-05T19:50:05.315Z,18.00
2023-05-05T19:52:36.850Z,18.10
2023-05-05T19:55:05.839Z,17.90
2023-05-05T19:57:34.714Z,17.80
2023-05-05T20:00:04.165Z,17.70
2023-05-05T20:02:37.017Z,17.70
2023-05-05T20:05:05.833Z,17.70
2023-05-05T20:07:34.858Z,17.70
2023-05-05T20:10:04.054Z,17.70
2023-05-05T20:12:33.224Z,17.60
2023-05-05T20:15:01.690Z,17.40
2023-05-05T20:17:32.882Z,17.30
2023-05-05T20:20:01.535Z,17.20
2023-05-05T20:22:33.526Z,17.10
2023-05-05T20:25:02.893Z,17.10
2023-05-05T20:27:33.479Z,17.10
2023-05-05T20:30:03.313Z,17.00
2023-05-05T20:32:33.804Z,17.00
2023-05-05T20:35:04.734Z,16.90
2023-05-05T20:37:33.652Z,16.80
2023-05-05T20:40:02.922Z,16.70
2023-05-05T20:42:32.880Z,16.70
2023-05-05T20:45:02.435Z,16.60
2023-05-05T20:47:35.587Z,16.60
2023-05-05T20:50:04.428Z,16.60
2023-05-05T20:52:34.803Z,16.50
2023-05-05T20:55:04.096Z,16.30
2023-05-05T20:57:34.604Z,16.20
2023-05-05T21:00:04.213Z,16.10
2023-05-05T21:02:36.254Z,16.00
2023-05-05T21:05:05.351Z,16.00
2023-05-05T21:07:34.539Z,16.00
2023-05-05T21:10:04.090Z,15.90
2023-05-05T21:12:35.512Z,15.80
2023-05-05T21:15:04.631Z,15.70
2023-05-05T21:17:35.144Z,15.60
2023-05-05T21:20:03.918Z,15.50
2023-05-05T21:22:34.129Z,15.40
2023-05-05T21:25:14.947Z,15.40
2023-05-05T21:27:44.033Z,15.50
2023-05-05T21:30:13.107Z,15.50
2023-05-05T21:32:42.531Z,15.60
2023-05-05T21:35:11.295Z,15.50
2023-05-05T21:37:40.587Z,15.50
2023-05-05T21:40:11.339Z,15.40
2023-05-05T21:42:41.360Z,15.30
2023-05-05T21:45:11.301Z,15.30
2023-05-05T21:47:39.979Z,15.30
2023-05-05T21:50:10.679Z,15.30
2023-05-05T21:52:39.354Z,15.20
2023-05-05T21:55:08.461Z,15.10
2023-05-05T21:57:36.709Z,15.10
2023-05-05T22:00:06.501Z,14.60
2023-05-05T22:02:42.274Z,14.90
2023-05-05T22:05:10.850Z,14.70
2023-05-05T22:07:58.124Z,14.60
2023-05-05T22:10:31.109Z,14.60
2023-05-05T22:13:00.358Z,14.60
2023-05-05T22:15:32.974Z,14.60
2023-05-05T22:18:11.660Z,14.60
2023-05-05T22:20:40.927Z,14.40
2023-05-05T22:23:10.066Z,14.30
2023-05-05T22:25:38.652Z,14.30
2023-05-05T22:28:07.217Z,14.30
2023-05-05T22:30:35.940Z,14.30
2023-05-05T22:33:04.250Z,14.30
2023-05-05T22:35:32.797Z,14.40
2023-05-05T22:38:01.645Z,14.40
2023-05-05T22:40:30.794Z,14.40
2023-05-05T22:42:59.760Z,14.40
2023-05-05T22:45:28.511Z,14.20
2023-05-05T22:47:57.425Z,14.10
2023-05-05T22:50:26.030Z,14.20
2023-05-05T22:52:54.288Z,14.20
2023-05-05T22:55:24.496Z,14.20
2023-05-05T22:57:52.792Z,14.10
2023-05-05T23:00:21.564Z,14.10
2023-05-05T23:02:50.562Z,14.10
2023-05-05T23:05:19.452Z,14.00
2023-05-05T23:07:47.440Z,14.00
2023-05-05T23:10:15.793Z,14.00
2023-05-05T23:12:44.852Z,14.00
2023-05-05T23:15:13.467Z,14.00
2023-05-05T23:17:41.704Z,13.90
2023-05-05T23:20:13.325Z,13.80
2023-05-05T23:22:42.219Z,13.70
2023-05-05T23:25:11.467Z,13.70
2023-05-05T23:27:42.841Z,13.80
2023-05-05T23:30:11.372Z,13.90
2023-05-05T23:32:39.688Z,13.90
2023-05-05T23:35:09.328Z,13.90
2023-05-05T23:37:38.046Z,13.90
2023-05-05T23:40:07.717Z,13.70
2023-05-05T23:42:36.832Z,13.60
2023-05-05T23:45:05.892Z,13.50
2023-05-05T23:47:34.447Z,13.50
2023-05-05T23:50:02.784Z,13.40
2023-05-05T23:52:32.428Z,13.40
2023-05-05T23:55:00.879Z,13.40
2023-05-05T23:57:29.603Z,13.40
2023-05-05T23:59:58.489Z,13.20
